createdAt,value
2018-11-11T00:01:40.935Z,13.72
2018-11-11T00:04:09.740Z,13.57
2018-11-11T00:06:38.593Z,13.56
2018-11-11T00:09:09.244Z,13.61
2018-11-11T00:11:38.041Z,13.54
2018-11-11T00:14:07.188Z,13.52
2018-11-11T00:16:35.975Z,13.46
2018-11-11T00:19:04.855Z,13.50
2018-11-11T00:21:33.699Z,13.53
2018-11-11T00:24:02.702Z,13.41
2018-11-11T00:26:31.479Z,13.55
2018-11-11T00:29:00.289Z,13.55
2018-11-11T00:31:29.141Z,13.41
2018-11-11T00:33:57.931Z,13.54
2018-11-11T00:36:26.909Z,13.58
2018-11-11T00:38:55.785Z,13.60
2018-11-11T00:41:24.603Z,13.56
2018-11-11T00:43:53.375Z,13.73
2018-11-11T00:46:22.194Z,13.40
2018-11-11T00:48:51.054Z,13.53
2018-11-11T00:51:19.886Z,13.52
2018-11-11T00:53:48.928Z,13.65
2018-11-11T00:56:17.719Z,13.64
2018-11-11T00:58:46.512Z,13.59
2018-11-11T01:01:15.342Z,13.64
2018-11-11T01:03:44.159Z,13.55
2018-11-11T01:06:13.161Z,13.65
2018-11-11T01:08:42.152Z,13.67
2018-11-11T01:11:13.807Z,13.67
2018-11-11T01:13:42.595Z,13.64
2018-11-11T01:16:11.625Z,13.37
2018-11-11T01:18:41.043Z,13.56
2018-11-11T01:21:09.895Z,13.52
2018-11-11T01:23:38.721Z,13.59
2018-11-11T01:26:07.539Z,13.07
2018-11-11T01:28:36.527Z,13.49
2018-11-11T01:31:05.945Z,13.56
2018-11-11T01:33:34.748Z,13.45
2018-11-11T01:36:03.948Z,13.48
2018-11-11T01:38:33.082Z,13.09
2018-11-11T01:41:02.151Z,13.38
2018-11-11T01:43:31.182Z,13.51
2018-11-11T01:45:59.955Z,13.38
2018-11-11T01:48:29.347Z,13.48
2018-11-11T01:50:58.480Z,13.48
2018-11-11T01:53:27.283Z,13.47
2018-11-11T01:55:56.076Z,13.56
2018-11-11T01:58:24.915Z,13.62
2018-11-11T02:00:53.699Z,13.58
2018-11-11T02:03:22.520Z,13.55
2018-11-11T02:05:51.534Z,13.53
2018-11-11T02:08:20.371Z,13.60
2018-11-11T02:10:49.164Z,13.67
2018-11-11T02:13:18.296Z,13.03
2018-11-11T02:15:47.205Z,13.48
2018-11-11T02:18:15.995Z,13.50
2018-11-11T02:20:44.779Z,13.52
2018-11-11T02:23:13.578Z,13.58
2018-11-11T02:25:42.384Z,13.62
2018-11-11T02:28:11.175Z,13.43
2018-11-11T02:30:39.959Z,13.44
2018-11-11T02:33:08.770Z,13.38
2018-11-11T02:35:37.533Z,13.55
2018-11-11T02:38:06.482Z,13.46
2018-11-11T02:40:35.597Z,13.49
2018-11-11T02:43:04.381Z,13.53
2018-11-11T02:45:33.171Z,13.48
2018-11-11T02:48:01.938Z,13.47
2018-11-11T02:50:30.707Z,13.40
2018-11-11T02:52:59.469Z,13.46
2018-11-11T02:55:28.253Z,13.42
2018-11-11T02:57:56.999Z,13.41
2018-11-11T03:00:26.135Z,13.49
2018-11-11T03:02:54.888Z,13.41
2018-11-11T03:05:23.979Z,13.48
2018-11-11T03:07:52.975Z,13.36
2018-11-11T03:10:21.748Z,13.37
2018-11-11T03:12:51.192Z,13.35
2018-11-11T03:15:20.771Z,13.41
2018-11-11T03:17:49.794Z,13.38
2018-11-11T03:20:19.172Z,13.31
2018-11-11T03:22:47.980Z,13.36
2018-11-11T03:25:17.428Z,13.42
2018-11-11T03:27:46.464Z,13.38
2018-11-11T03:30:16.645Z,13.27
2018-11-11T03:32:46.055Z,13.38
2018-11-11T03:35:15.462Z,13.40
2018-11-11T03:37:44.995Z,13.36
2018-11-11T03:40:18.303Z,13.32
2018-11-11T03:42:47.399Z,13.40
2018-11-11T03:45:17.478Z,13.36
2018-11-11T03:47:47.392Z,13.40
2018-11-11T03:50:16.522Z,13.41
2018-11-11T03:52:45.740Z,13.35
2018-11-11T03:55:14.543Z,13.42
2018-11-11T03:57:43.684Z,13.40
2018-11-11T04:00:13.769Z,13.52
2018-11-11T04:02:42.916Z,13.47
2018-11-11T04:05:13.099Z,13.53
2018-11-11T04:07:41.898Z,13.52
2018-11-11T04:10:13.487Z,13.52
2018-11-11T04:12:42.602Z,13.49
2018-11-11T04:15:14.172Z,13.42
2018-11-11T04:17:43.034Z,13.36
2018-11-11T04:20:16.709Z,13.32
2018-11-11T04:22:45.506Z,13.32
2018-11-11T04:25:15.520Z,13.38
2018-11-11T04:27:44.359Z,13.39
2018-11-11T04:30:14.209Z,13.32
2018-11-11T04:32:43.408Z,13.45
2018-11-11T04:35:12.648Z,13.36
2018-11-11T04:37:41.611Z,13.32
2018-11-11T04:40:11.375Z,13.33
2018-11-11T04:42:40.171Z,13.32
2018-11-11T04:45:11.899Z,13.27
2018-11-11T04:47:40.858Z,13.33
2018-11-11T04:50:11.218Z,13.28
2018-11-11T04:52:40.299Z,13.35
2018-11-11T04:55:09.960Z,13.25
2018-11-11T04:57:39.091Z,13.07
2018-11-11T05:00:09.315Z,13.27
2018-11-11T05:02:38.748Z,13.37
2018-11-11T05:05:08.091Z,13.24
2018-11-11T05:07:36.908Z,13.23
2018-11-11T05:10:06.397Z,13.18
2018-11-11T05:12:35.330Z,13.22
2018-11-11T05:15:04.181Z,13.31
2018-11-11T05:17:33.009Z,13.34
2018-11-11T05:20:01.879Z,13.32
2018-11-11T05:22:30.885Z,13.38
2018-11-11T05:24:59.682Z,13.33
2018-11-11T05:27:28.704Z,13.14
2018-11-11T05:29:57.495Z,13.46
2018-11-11T05:32:26.286Z,13.68
2018-11-11T05:34:55.252Z,13.81
2018-11-11T05:37:24.244Z,13.60
2018-11-11T05:39:53.034Z,13.65
2018-11-11T05:42:21.799Z,13.75
2018-11-11T05:44:50.804Z,13.62
2018-11-11T05:47:19.583Z,13.49
2018-11-11T05:49:48.394Z,13.49
2018-11-11T05:52:17.379Z,13.67
2018-11-11T05:54:46.181Z,13.58
2018-11-11T05:57:14.957Z,13.70
2018-11-11T05:59:44.548Z,13.58
2018-11-11T06:02:13.342Z,13.41
2018-11-11T06:04:42.175Z,13.19
2018-11-11T06:07:10.980Z,13.26
2018-11-11T06:09:40.003Z,13.29
2018-11-11T06:12:08.764Z,13.27
2018-11-11T06:14:37.528Z,13.07
2018-11-11T06:17:06.547Z,13.18
2018-11-11T06:19:35.337Z,13.24
2018-11-11T06:22:04.662Z,13.17
2018-11-11T06:24:33.619Z,13.30
2018-11-11T06:27:02.397Z,13.34
2018-11-11T06:29:31.149Z,13.43
2018-11-11T06:32:00.233Z,13.43
2018-11-11T06:34:29.236Z,13.31
2018-11-11T06:36:58.111Z,13.32
2018-11-11T06:39:26.868Z,13.46
2018-11-11T06:41:55.620Z,13.31
2018-11-11T06:44:24.462Z,13.42
2018-11-11T06:46:53.383Z,13.31
2018-11-11T06:49:22.144Z,13.11
2018-11-11T06:51:51.161Z,13.35
2018-11-11T06:54:19.939Z,13.32
2018-11-11T06:56:51.711Z,13.22
2018-11-11T06:59:20.704Z,13.31
2018-11-11T07:01:49.492Z,13.43
2018-11-11T07:04:18.263Z,13.26
2018-11-11T07:06:47.007Z,13.09
2018-11-11T07:09:15.873Z,13.22
2018-11-11T07:11:45.053Z,12.74
2018-11-11T07:14:13.964Z,13.38
2018-11-11T07:16:42.901Z,13.49
2018-11-11T07:19:11.683Z,13.61
2018-11-11T07:21:40.471Z,13.64
2018-11-11T07:24:09.318Z,13.66
2018-11-11T07:26:38.240Z,13.43
2018-11-11T07:29:07.369Z,13.37
2018-11-11T07:31:36.202Z,13.26
2018-11-11T07:34:05.021Z,13.05
2018-11-11T07:36:33.804Z,13.23
2018-11-11T07:39:03.160Z,13.27
2018-11-11T07:41:31.992Z,13.38
2018-11-11T07:44:00.816Z,13.43
2018-11-11T07:46:29.600Z,13.53
2018-11-11T07:48:58.445Z,13.41
2018-11-11T07:51:27.228Z,13.42
2018-11-11T07:53:56.061Z,13.26
2018-11-11T07:56:24.848Z,13.29
2018-11-11T07:58:53.620Z,13.33
2018-11-11T08:01:22.428Z,13.31
2018-11-11T08:03:51.432Z,13.22
2018-11-11T08:06:20.253Z,13.19
2018-11-11T08:08:49.101Z,13.31
2018-11-11T08:11:28.983Z,13.39
2018-11-11T08:13:57.746Z,13.33
2018-11-11T08:16:26.539Z,13.28
2018-11-11T08:18:55.567Z,13.27
2018-11-11T08:21:24.537Z,13.14
2018-11-11T08:23:53.299Z,13.42
2018-11-11T08:26:22.248Z,13.42
2018-11-11T08:28:51.024Z,13.53
2018-11-11T08:31:19.971Z,13.49
2018-11-11T08:33:48.760Z,13.82
2018-11-11T08:36:17.533Z,13.72
2018-11-11T08:38:46.290Z,13.87
2018-11-11T08:41:15.386Z,13.85
2018-11-11T08:43:44.345Z,14.00
2018-11-11T08:46:13.103Z,14.07
2018-11-11T08:48:41.855Z,13.94
2018-11-11T08:51:10.631Z,13.97
2018-11-11T08:53:39.408Z,13.94
2018-11-11T08:56:08.173Z,13.95
2018-11-11T08:58:37.279Z,13.46
2018-11-11T09:01:06.287Z,13.07
2018-11-11T09:03:35.075Z,13.62
2018-11-11T09:06:04.067Z,13.72
2018-11-11T09:08:32.992Z,13.74
2018-11-11T09:11:01.921Z,13.91
2018-11-11T09:13:30.671Z,14.04
2018-11-11T09:15:59.498Z,14.02
2018-11-11T09:18:28.316Z,14.05
2018-11-11T09:20:57.547Z,14.09
2018-11-11T09:23:26.316Z,13.92
2018-11-11T09:25:55.116Z,13.84
2018-11-11T09:28:24.064Z,13.74
2018-11-11T09:30:53.395Z,13.77
2018-11-11T09:33:22.712Z,13.78
2018-11-11T09:35:51.473Z,13.89
2018-11-11T09:38:20.248Z,13.90
2018-11-11T09:40:49.238Z,13.86
2018-11-11T09:43:19.068Z,13.89
2018-11-11T09:45:47.941Z,13.83
2018-11-11T09:48:16.716Z,13.85
2018-11-11T09:50:45.471Z,13.81
2018-11-11T09:53:14.529Z,13.83
2018-11-11T09:55:43.334Z,13.86
2018-11-11T09:58:12.178Z,13.86
2018-11-11T10:00:41.346Z,13.92
2018-11-11T10:03:14.707Z,13.91
2018-11-11T10:07:53.849Z,13.86
2018-11-11T10:10:40.563Z,13.87
2018-11-11T10:13:16.406Z,13.93
2018-11-11T10:15:50.624Z,13.93
2018-11-11T10:18:31.380Z,13.93
2018-11-11T10:21:13.350Z,13.98
2018-11-11T10:24:00.787Z,14.12
2018-11-11T10:26:34.946Z,14.03
2018-11-11T10:29:10.795Z,14.08
2018-11-11T10:31:47.774Z,14.13
2018-11-11T10:34:20.252Z,14.23
2018-11-11T10:36:53.188Z,14.20
2018-11-11T10:39:25.476Z,14.24
2018-11-11T10:41:59.505Z,14.20
2018-11-11T10:44:32.361Z,14.07
2018-11-11T10:47:06.806Z,14.09
2018-11-11T10:49:38.067Z,14.27
2018-11-11T10:52:07.058Z,14.28
2018-11-11T10:54:35.851Z,14.22
2018-11-11T10:57:04.917Z,14.19
2018-11-11T10:59:33.759Z,14.26
2018-11-11T11:02:07.949Z,14.29
2018-11-11T11:04:40.980Z,14.34
2018-11-11T11:07:09.751Z,14.43
2018-11-11T11:09:38.609Z,14.48
2018-11-11T11:12:08.279Z,14.52
2018-11-11T11:14:37.079Z,14.55
2018-11-11T11:17:05.851Z,14.66
2018-11-11T11:19:34.657Z,14.76
2018-11-11T11:22:03.461Z,14.78
2018-11-11T11:24:32.233Z,14.99
2018-11-11T11:27:01.280Z,14.96
2018-11-11T11:29:30.243Z,14.98
2018-11-11T11:31:59.439Z,15.04
2018-11-11T11:34:28.400Z,15.05
2018-11-11T11:36:57.417Z,15.13
2018-11-11T11:39:26.196Z,15.21
2018-11-11T11:41:55.035Z,15.27
2018-11-11T11:44:23.989Z,15.31
2018-11-11T11:46:52.768Z,15.35
2018-11-11T11:49:21.751Z,15.38
2018-11-11T11:51:50.765Z,15.38
2018-11-11T11:54:19.527Z,15.40
2018-11-11T11:56:48.711Z,15.42
2018-11-11T11:59:17.488Z,15.43
2018-11-11T12:01:46.482Z,15.47
2018-11-11T12:04:15.399Z,15.54
2018-11-11T12:06:44.220Z,15.57
2018-11-11T12:09:13.097Z,15.50
2018-11-11T12:11:41.993Z,15.52
2018-11-11T12:14:10.754Z,15.51
2018-11-11T12:16:39.764Z,15.53
2018-11-11T12:19:09.056Z,15.55
2018-11-11T12:21:37.812Z,15.58
2018-11-11T12:24:07.117Z,15.58
2018-11-11T12:26:36.089Z,15.65
2018-11-11T12:29:05.451Z,15.57
2018-11-11T12:31:34.450Z,15.54
2018-11-11T12:34:03.480Z,15.54
2018-11-11T12:36:32.256Z,15.54
2018-11-11T12:39:01.113Z,15.53
2018-11-11T12:41:30.014Z,15.54
2018-11-11T12:43:58.815Z,15.55
2018-11-11T12:46:27.580Z,15.51
2018-11-11T12:48:56.397Z,15.59
2018-11-11T12:51:25.383Z,15.60
2018-11-11T12:53:54.222Z,15.62
2018-11-11T12:56:23.388Z,15.66
2018-11-11T12:58:52.178Z,15.69
2018-11-11T13:01:20.968Z,15.70
2018-11-11T13:03:49.750Z,15.72
2018-11-11T13:06:18.731Z,15.73
2018-11-11T13:08:47.599Z,15.74
2018-11-11T13:11:16.380Z,15.77
2018-11-11T13:13:45.443Z,15.83
2018-11-11T13:16:14.399Z,15.87
2018-11-11T13:18:43.242Z,15.88
2018-11-11T13:21:12.338Z,15.89
2018-11-11T13:23:41.259Z,15.88
2018-11-11T13:26:10.096Z,15.90
2018-11-11T13:28:38.983Z,15.89
2018-11-11T13:31:07.971Z,15.89
2018-11-11T13:33:36.961Z,15.88
2018-11-11T13:36:05.772Z,15.88
2018-11-11T13:38:34.714Z,15.88
2018-11-11T13:41:04.027Z,15.87
2018-11-11T13:43:32.870Z,15.86
2018-11-11T13:46:01.677Z,15.86
2018-11-11T13:48:33.691Z,15.87
2018-11-11T13:51:02.957Z,15.87
2018-11-11T13:53:32.246Z,15.87
2018-11-11T13:56:01.134Z,15.87
2018-11-11T13:58:29.915Z,15.86
2018-11-11T14:00:58.731Z,15.88
2018-11-11T14:03:27.542Z,15.92
2018-11-11T14:05:56.362Z,16.02
2018-11-11T14:08:25.319Z,16.15
2018-11-11T14:10:54.254Z,16.28
2018-11-11T14:13:23.281Z,16.29
2018-11-11T14:15:52.362Z,16.29
2018-11-11T14:18:21.439Z,16.28
2018-11-11T14:20:50.414Z,16.27
2018-11-11T14:23:19.252Z,16.26
2018-11-11T14:25:48.095Z,16.25
2018-11-11T14:28:17.079Z,16.24
2018-11-11T14:30:45.872Z,16.21
2018-11-11T14:33:14.868Z,16.19
2018-11-11T14:35:43.728Z,16.15
2018-11-11T14:38:12.777Z,16.14
2018-11-11T14:40:41.704Z,16.14
2018-11-11T14:43:10.484Z,16.24
2018-11-11T14:45:39.258Z,16.23
2018-11-11T14:48:08.316Z,16.21
2018-11-11T14:50:37.192Z,16.21
2018-11-11T14:53:06.208Z,16.19
2018-11-11T14:55:34.992Z,16.16
2018-11-11T14:58:03.905Z,16.14
2018-11-11T15:00:33.895Z,16.21
2018-11-11T15:03:05.052Z,16.31
2018-11-11T15:05:34.133Z,16.35
2018-11-11T15:08:03.403Z,16.40
2018-11-11T15:10:32.689Z,16.45
2018-11-11T15:13:01.761Z,16.48
2018-11-11T15:15:30.841Z,16.46
2018-11-11T15:18:00.685Z,16.43
2018-11-11T15:20:29.743Z,16.40
2018-11-11T15:22:58.560Z,16.37
2018-11-11T15:25:29.221Z,16.31
2018-11-11T15:27:58.433Z,16.25
2018-11-11T15:30:30.956Z,16.19
2018-11-11T15:33:00.537Z,16.10
2018-11-11T15:35:29.364Z,16.06
2018-11-11T15:37:58.524Z,16.02
2018-11-11T15:40:28.733Z,15.98
2018-11-11T15:42:58.053Z,15.91
2018-11-11T15:45:31.305Z,15.86
2018-11-11T15:48:00.478Z,15.81
2018-11-11T15:50:30.463Z,15.75
2018-11-11T15:53:00.761Z,15.70
2018-11-11T15:55:30.983Z,15.67
2018-11-11T15:57:59.820Z,15.63
2018-11-11T16:00:31.102Z,15.58
2018-11-11T16:02:59.866Z,15.49
2018-11-11T16:05:29.149Z,15.41
2018-11-11T16:07:58.652Z,15.38
2018-11-11T16:10:29.662Z,15.38
2018-11-11T16:12:58.549Z,15.30
2018-11-11T16:15:29.089Z,15.27
2018-11-11T16:18:00.847Z,15.22
2018-11-11T16:20:30.722Z,15.24
2018-11-11T16:23:00.620Z,15.22
2018-11-11T16:25:29.462Z,15.20
2018-11-11T16:27:58.396Z,15.17
2018-11-11T16:30:28.984Z,15.15
2018-11-11T16:32:58.537Z,15.13
2018-11-11T16:35:28.452Z,14.97
2018-11-11T16:37:58.190Z,14.78
2018-11-11T16:40:28.325Z,14.64
2018-11-11T16:42:58.037Z,15.02
2018-11-11T16:45:27.931Z,15.03
2018-11-11T16:47:57.044Z,14.97
2018-11-11T16:50:32.914Z,14.96
2018-11-11T16:53:03.614Z,14.87
2018-11-11T16:55:33.867Z,14.85
2018-11-11T16:58:03.148Z,14.77
2018-11-11T17:00:33.494Z,14.73
2018-11-11T17:03:03.860Z,14.66
2018-11-11T17:05:34.195Z,14.63
2018-11-11T17:08:02.956Z,14.61
2018-11-11T17:10:33.237Z,14.57
2018-11-11T17:13:03.861Z,14.55
2018-11-11T17:15:33.281Z,14.53
2018-11-11T17:18:04.036Z,14.49
2018-11-11T17:20:32.970Z,14.40
2018-11-11T17:23:03.639Z,14.37
2018-11-11T17:25:32.845Z,14.35
2018-11-11T17:28:01.686Z,14.32
2018-11-11T17:30:31.991Z,14.28
2018-11-11T17:33:01.676Z,14.30
2018-11-11T17:35:30.639Z,14.30
2018-11-11T17:37:59.547Z,14.23
2018-11-11T17:40:29.467Z,14.25
2018-11-11T17:42:58.772Z,14.19
2018-11-11T17:45:28.228Z,14.20
2018-11-11T17:47:57.235Z,14.10
2018-11-11T17:50:30.427Z,14.11
2018-11-11T17:53:00.136Z,13.42
2018-11-11T17:55:29.910Z,13.04
2018-11-11T17:57:58.869Z,12.79
2018-11-11T18:00:29.072Z,12.68
2018-11-11T18:02:58.646Z,12.77
2018-11-11T18:05:28.696Z,12.95
2018-11-11T18:07:57.891Z,12.75
2018-11-11T18:10:27.296Z,12.73
2018-11-11T18:12:56.285Z,12.77
2018-11-11T18:15:26.650Z,12.96
2018-11-11T18:17:55.499Z,12.86
2018-11-11T18:20:25.870Z,12.90
2018-11-11T18:22:55.348Z,13.05
2018-11-11T18:25:24.283Z,12.95
2018-11-11T18:27:53.214Z,12.82
2018-11-11T18:30:26.854Z,12.73
2018-11-11T18:32:56.438Z,13.37
2018-11-11T18:35:25.291Z,13.59
2018-11-11T18:37:54.117Z,13.72
2018-11-11T18:40:24.730Z,13.75
2018-11-11T18:42:53.509Z,13.81
2018-11-11T18:48:26.090Z,13.84
2018-11-11T18:50:54.930Z,13.84
2018-11-11T18:53:23.788Z,13.85
2018-11-11T18:55:52.774Z,13.38
2018-11-11T18:58:21.573Z,13.11
2018-11-11T19:00:50.723Z,13.08
2018-11-11T19:03:19.939Z,13.04
2018-11-11T19:05:48.767Z,12.90
2018-11-11T19:08:17.559Z,13.64
2018-11-11T19:10:46.628Z,13.87
2018-11-11T19:13:15.446Z,13.49
2018-11-11T19:15:44.508Z,13.35
2018-11-11T19:18:13.333Z,13.18
2018-11-11T19:20:42.447Z,13.19
2018-11-11T19:23:11.218Z,12.86
2018-11-11T19:25:40.007Z,12.82
2018-11-11T19:28:09.057Z,12.82
2018-11-11T19:30:38.407Z,12.68
2018-11-11T19:33:07.315Z,13.52
2018-11-11T19:35:36.342Z,13.67
2018-11-11T19:38:05.868Z,13.72
2018-11-11T19:40:34.885Z,13.70
2018-11-11T19:43:03.863Z,13.68
2018-11-11T19:45:32.695Z,13.76
2018-11-11T19:48:01.914Z,13.77
2018-11-11T19:50:31.139Z,13.72
2018-11-11T19:53:00.143Z,13.76
2018-11-11T19:55:29.150Z,13.80
2018-11-11T19:57:58.524Z,13.81
2018-11-11T20:00:28.719Z,13.78
2018-11-11T20:02:58.558Z,13.81
2018-11-11T20:05:27.525Z,13.74
2018-11-11T20:07:57.475Z,13.77
2018-11-11T20:10:27.529Z,13.71
2018-11-11T20:12:57.019Z,13.74
2018-11-11T20:15:27.434Z,13.70
2018-11-11T20:17:56.281Z,13.75
2018-11-11T20:20:37.152Z,13.76
2018-11-11T20:23:06.314Z,13.70
2018-11-11T20:25:35.515Z,13.81
2018-11-11T20:28:04.608Z,13.81
2018-11-11T20:30:35.553Z,13.68
2018-11-11T20:33:04.486Z,13.64
2018-11-11T20:35:33.675Z,13.61
2018-11-11T20:38:02.543Z,13.63
2018-11-11T20:40:31.674Z,13.56
2018-11-11T20:43:00.626Z,13.61
2018-11-11T20:45:30.876Z,13.62
2018-11-11T20:47:59.668Z,13.55
2018-11-11T20:50:30.140Z,13.58
2018-11-11T20:53:03.084Z,13.52
2018-11-11T20:55:32.121Z,13.48
2018-11-11T20:58:01.233Z,13.54
2018-11-11T21:00:36.436Z,13.42
2018-11-11T21:03:06.098Z,13.42
2018-11-11T21:05:34.861Z,13.28
2018-11-11T21:08:03.847Z,13.26
2018-11-11T21:10:32.656Z,13.27
2018-11-11T21:13:01.674Z,13.36
2018-11-11T21:15:31.556Z,13.31
2018-11-11T21:18:00.369Z,13.31
2018-11-11T21:20:30.700Z,13.30
2018-11-11T21:22:59.678Z,13.23
2018-11-11T21:25:28.601Z,13.14
2018-11-11T21:27:57.771Z,13.24
2018-11-11T21:30:27.852Z,13.32
2018-11-11T21:32:56.986Z,13.27
2018-11-11T21:35:26.156Z,13.21
2018-11-11T21:37:55.182Z,13.21
2018-11-11T21:40:25.415Z,13.20
2018-11-11T21:42:54.824Z,13.22
2018-11-11T21:45:24.647Z,13.23
2018-11-11T21:47:53.684Z,13.17
2018-11-11T21:50:23.643Z,13.12
2018-11-11T21:52:59.823Z,13.11
2018-11-11T21:55:29.151Z,13.07
2018-11-11T21:57:58.531Z,13.10
2018-11-11T22:00:27.655Z,13.11
2018-11-11T22:02:56.906Z,13.09
2018-11-11T22:05:25.897Z,13.18
2018-11-11T22:07:54.835Z,13.06
2018-11-11T22:10:23.619Z,13.12
2018-11-11T22:12:52.430Z,13.13
2018-11-11T22:15:21.407Z,13.21
2018-11-11T22:17:50.213Z,13.06
2018-11-11T22:20:19.058Z,13.12
2018-11-11T22:22:47.875Z,13.13
2018-11-11T22:25:18.659Z,13.06
2018-11-11T22:27:47.527Z,13.15
2018-11-11T22:30:16.483Z,13.06
2018-11-11T22:32:45.318Z,12.95
2018-11-11T22:35:14.112Z,13.03
2018-11-11T22:37:42.996Z,13.07
2018-11-11T22:40:12.899Z,13.14
2018-11-11T22:42:41.999Z,13.13
2018-11-11T22:45:14.313Z,13.13
2018-11-11T22:47:43.370Z,13.10
2018-11-11T22:50:14.119Z,13.05
2018-11-11T22:52:43.000Z,13.00
2018-11-11T22:55:12.294Z,12.95
2018-11-11T22:57:42.148Z,12.97
2018-11-11T23:00:19.389Z,12.99
2018-11-11T23:02:48.713Z,13.01
2018-11-11T23:05:18.817Z,12.99
2018-11-11T23:07:48.079Z,12.98
2018-11-11T23:10:17.018Z,13.05
2018-11-11T23:12:46.306Z,12.98
2018-11-11T23:15:16.993Z,13.06
2018-11-11T23:17:45.954Z,13.13
2018-11-11T23:20:16.509Z,13.07
2018-11-11T23:22:45.493Z,13.04
2018-11-11T23:25:15.790Z,12.93
2018-11-11T23:27:45.122Z,13.07
2018-11-11T23:30:16.744Z,12.97
2018-11-11T23:32:45.899Z,13.02
2018-11-11T23:35:15.243Z,13.01
2018-11-11T23:37:44.340Z,12.99
2018-11-11T23:40:14.615Z,13.04
2018-11-11T23:42:44.403Z,12.98
2018-11-11T23:45:13.217Z,12.97
2018-11-11T23:47:41.983Z,13.01
2018-11-11T23:50:13.631Z,12.97
2018-11-11T23:52:42.989Z,12.87
2018-11-11T23:55:13.230Z,12.85
2018-11-11T23:57:42.267Z,12.87
